Sundridge, Canada
Current Conditions -  °F | °C
As of 2:00 AM on Wednesday 22 Oct 2014 (Local Time) from CYYB Reporting Station
Clear Clear  
Wind Chill: 24°   Ceiling: Unl
Heat Index: 32°   Visibility: 9mi
Dew Point: 28°   Wind: 10mph
Humidity: 87%   Direction: 30°NNE
Pressure: 30.26"   Gusts: NA
Location:  45.77°N, 79.4°W
Report Text: CYYB 220600Z AUTO 03009KT 9SM CLR M00/M02 A3026 RMK SLP264
Loading
Personal Weather Stations






























Interactive Weather Map
Tropical Storm Tracking
New forecast layout! Learn more

10-Day Weather Forecast

Advertisements
Track Severe Weather on mobile